sensor_id;sensor_type;location;lat;lon;timestamp;temperature;humidity
913;DHT22;443;51.448;7.028;2023-04-09T00:01:57;13.30;73.50
913;DHT22;443;51.448;7.028;2023-04-09T00:04:24;13.30;72.90
913;DHT22;443;51.448;7.028;2023-04-09T00:06:50;13.20;73.10
913;DHT22;443;51.448;7.028;2023-04-09T00:09:18;13.20;72.90
913;DHT22;443;51.448;7.028;2023-04-09T00:11:45;13.20;73.60
913;DHT22;443;51.448;7.028;2023-04-09T00:14:13;13.10;72.20
913;DHT22;443;51.448;7.028;2023-04-09T00:16:40;13.20;73.00
913;DHT22;443;51.448;7.028;2023-04-09T00:19:07;13.20;73.50
913;DHT22;443;51.448;7.028;2023-04-09T00:21:34;13.20;73.20
913;DHT22;443;51.448;7.028;2023-04-09T00:24:01;13.10;73.10
913;DHT22;443;51.448;7.028;2023-04-09T00:26:28;13.10;73.20
913;DHT22;443;51.448;7.028;2023-04-09T00:28:55;13.00;73.20
913;DHT22;443;51.448;7.028;2023-04-09T00:31:23;13.00;73.50
913;DHT22;443;51.448;7.028;2023-04-09T00:33:50;13.10;73.60
913;DHT22;443;51.448;7.028;2023-04-09T00:36:17;13.10;73.40
913;DHT22;443;51.448;7.028;2023-04-09T00:38:44;13.00;73.10
913;DHT22;443;51.448;7.028;2023-04-09T00:41:11;13.00;73.50
913;DHT22;443;51.448;7.028;2023-04-09T00:43:38;12.90;72.90
913;DHT22;443;51.448;7.028;2023-04-09T00:46:05;12.90;73.10
913;DHT22;443;51.448;7.028;2023-04-09T00:48:33;12.90;74.00
913;DHT22;443;51.448;7.028;2023-04-09T00:51:00;12.90;73.60
913;DHT22;443;51.448;7.028;2023-04-09T00:53:27;12.90;73.20
913;DHT22;443;51.448;7.028;2023-04-09T00:55:54;12.90;73.50
913;DHT22;443;51.448;7.028;2023-04-09T00:58:22;12.80;72.90
913;DHT22;443;51.448;7.028;2023-04-09T01:00:48;12.80;73.80
913;DHT22;443;51.448;7.028;2023-04-09T01:03:15;12.90;74.10
913;DHT22;443;51.448;7.028;2023-04-09T01:05:52;12.90;73.90
913;DHT22;443;51.448;7.028;2023-04-09T01:08:30;12.80;73.40
913;DHT22;443;51.448;7.028;2023-04-09T01:11:03;12.80;73.60
913;DHT22;443;51.448;7.028;2023-04-09T01:13:38;12.70;73.40
913;DHT22;443;51.448;7.028;2023-04-09T01:16:05;12.70;73.00
913;DHT22;443;51.448;7.028;2023-04-09T01:18:40;12.70;73.50
913;DHT22;443;51.448;7.028;2023-04-09T01:21:12;12.70;73.30
913;DHT22;443;51.448;7.028;2023-04-09T01:23:45;12.70;73.70
913;DHT22;443;51.448;7.028;2023-04-09T01:26:20;12.70;73.60
913;DHT22;443;51.448;7.028;2023-04-09T01:28:52;12.80;73.70
913;DHT22;443;51.448;7.028;2023-04-09T01:31:31;12.80;73.30
913;DHT22;443;51.448;7.028;2023-04-09T01:33:59;12.70;73.70
913;DHT22;443;51.448;7.028;2023-04-09T01:36:27;12.70;73.50
913;DHT22;443;51.448;7.028;2023-04-09T01:38:56;12.60;73.30
913;DHT22;443;51.448;7.028;2023-04-09T01:41:23;12.70;73.80
913;DHT22;443;51.448;7.028;2023-04-09T01:43:53;12.60;73.10
913;DHT22;443;51.448;7.028;2023-04-09T01:46:21;12.60;74.20
913;DHT22;443;51.448;7.028;2023-04-09T01:48:48;12.50;73.40
913;DHT22;443;51.448;7.028;2023-04-09T01:51:15;12.50;73.80
913;DHT22;443;51.448;7.028;2023-04-09T01:53:42;12.50;73.10
913;DHT22;443;51.448;7.028;2023-04-09T01:56:09;12.40;73.10
913;DHT22;443;51.448;7.028;2023-04-09T01:58:36;12.40;72.90
913;DHT22;443;51.448;7.028;2023-04-09T02:01:09;12.50;73.90
913;DHT22;443;51.448;7.028;2023-04-09T02:03:42;12.40;73.00
913;DHT22;443;51.448;7.028;2023-04-09T02:06:13;12.40;73.00
913;DHT22;443;51.448;7.028;2023-04-09T02:08:44;12.30;72.70
913;DHT22;443;51.448;7.028;2023-04-09T02:11:13;12.30;73.50
913;DHT22;443;51.448;7.028;2023-04-09T02:13:42;12.20;72.60
913;DHT22;443;51.448;7.028;2023-04-09T02:16:12;12.30;73.50
913;DHT22;443;51.448;7.028;2023-04-09T02:18:41;12.30;73.30
913;DHT22;443;51.448;7.028;2023-04-09T02:21:08;12.20;72.80
913;DHT22;443;51.448;7.028;2023-04-09T02:23:35;12.20;73.30
913;DHT22;443;51.448;7.028;2023-04-09T02:26:02;12.30;73.50
913;DHT22;443;51.448;7.028;2023-04-09T02:28:28;12.20;72.80
913;DHT22;443;51.448;7.028;2023-04-09T02:30:55;12.20;73.50
913;DHT22;443;51.448;7.028;2023-04-09T02:33:23;12.20;73.30
913;DHT22;443;51.448;7.028;2023-04-09T02:35:50;12.10;72.80
913;DHT22;443;51.448;7.028;2023-04-09T02:38:17;12.10;73.40
913;DHT22;443;51.448;7.028;2023-04-09T02:40:43;12.10;73.20
913;DHT22;443;51.448;7.028;2023-04-09T02:43:10;12.10;73.10
913;DHT22;443;51.448;7.028;2023-04-09T02:45:37;12.00;73.00
913;DHT22;443;51.448;7.028;2023-04-09T02:48:04;12.00;72.90
913;DHT22;443;51.448;7.028;2023-04-09T02:50:32;12.00;72.60
913;DHT22;443;51.448;7.028;2023-04-09T02:52:59;12.00;72.70
913;DHT22;443;51.448;7.028;2023-04-09T02:55:26;11.90;72.60
913;DHT22;443;51.448;7.028;2023-04-09T02:57:52;11.90;72.50
913;DHT22;443;51.448;7.028;2023-04-09T03:00:19;11.90;72.70
913;DHT22;443;51.448;7.028;2023-04-09T03:02:46;11.90;72.80
913;DHT22;443;51.448;7.028;2023-04-09T03:05:13;11.90;72.70
913;DHT22;443;51.448;7.028;2023-04-09T03:07:41;11.90;73.20
913;DHT22;443;51.448;7.028;2023-04-09T03:10:08;11.90;73.20
913;DHT22;443;51.448;7.028;2023-04-09T03:12:35;11.80;72.80
913;DHT22;443;51.448;7.028;2023-04-09T03:15:02;11.80;72.50
913;DHT22;443;51.448;7.028;2023-04-09T03:17:29;11.80;73.30
913;DHT22;443;51.448;7.028;2023-04-09T03:19:56;11.90;73.40
913;DHT22;443;51.448;7.028;2023-04-09T03:22:23;11.90;74.20
913;DHT22;443;51.448;7.028;2023-04-09T03:24:51;11.90;73.60
913;DHT22;443;51.448;7.028;2023-04-09T03:27:18;11.90;74.00
913;DHT22;443;51.448;7.028;2023-04-09T03:29:45;11.90;73.90
913;DHT22;443;51.448;7.028;2023-04-09T03:32:11;11.90;73.60
913;DHT22;443;51.448;7.028;2023-04-09T03:34:38;11.80;73.50
913;DHT22;443;51.448;7.028;2023-04-09T03:37:05;11.80;74.40
913;DHT22;443;51.448;7.028;2023-04-09T03:39:32;11.90;74.50
913;DHT22;443;51.448;7.028;2023-04-09T03:42:00;11.90;74.70
913;DHT22;443;51.448;7.028;2023-04-09T03:44:26;11.90;74.60
913;DHT22;443;51.448;7.028;2023-04-09T03:46:53;12.00;74.70
913;DHT22;443;51.448;7.028;2023-04-09T03:49:20;11.90;74.60
913;DHT22;443;51.448;7.028;2023-04-09T03:51:47;11.90;74.60
913;DHT22;443;51.448;7.028;2023-04-09T03:54:13;11.90;74.20
913;DHT22;443;51.448;7.028;2023-04-09T03:56:40;11.90;74.90
913;DHT22;443;51.448;7.028;2023-04-09T03:59:09;11.80;74.50
913;DHT22;443;51.448;7.028;2023-04-09T04:01:35;11.80;74.60
913;DHT22;443;51.448;7.028;2023-04-09T04:04:02;11.90;74.80
913;DHT22;443;51.448;7.028;2023-04-09T04:06:29;11.90;74.80
913;DHT22;443;51.448;7.028;2023-04-09T04:08:58;11.80;74.90
913;DHT22;443;51.448;7.028;2023-04-09T04:11:25;11.80;75.30
913;DHT22;443;51.448;7.028;2023-04-09T04:13:51;11.80;75.20
913;DHT22;443;51.448;7.028;2023-04-09T04:16:22;11.70;74.50
913;DHT22;443;51.448;7.028;2023-04-09T04:18:49;11.60;74.60
913;DHT22;443;51.448;7.028;2023-04-09T04:21:16;11.60;74.40
913;DHT22;443;51.448;7.028;2023-04-09T04:23:43;11.60;74.50
913;DHT22;443;51.448;7.028;2023-04-09T04:26:10;11.60;74.90
913;DHT22;443;51.448;7.028;2023-04-09T04:28:37;11.60;74.30
913;DHT22;443;51.448;7.028;2023-04-09T04:31:06;11.60;74.40
913;DHT22;443;51.448;7.028;2023-04-09T04:33:36;11.60;74.50
913;DHT22;443;51.448;7.028;2023-04-09T04:36:04;11.60;74.30
913;DHT22;443;51.448;7.028;2023-04-09T04:38:31;11.60;74.70
913;DHT22;443;51.448;7.028;2023-04-09T04:40:58;11.60;74.60
913;DHT22;443;51.448;7.028;2023-04-09T04:43:25;11.60;74.60
913;DHT22;443;51.448;7.028;2023-04-09T04:45:51;11.50;74.80
913;DHT22;443;51.448;7.028;2023-04-09T04:48:18;11.50;74.40
913;DHT22;443;51.448;7.028;2023-04-09T04:50:54;11.60;74.60
913;DHT22;443;51.448;7.028;2023-04-09T04:53:21;11.50;74.60
913;DHT22;443;51.448;7.028;2023-04-09T04:55:48;11.50;74.40
913;DHT22;443;51.448;7.028;2023-04-09T04:58:14;11.50;74.70
913;DHT22;443;51.448;7.028;2023-04-09T05:00:41;11.50;74.50
913;DHT22;443;51.448;7.028;2023-04-09T05:03:08;11.50;75.40
913;DHT22;443;51.448;7.028;2023-04-09T05:05:35;11.50;74.80
913;DHT22;443;51.448;7.028;2023-04-09T05:08:03;11.50;74.40
913;DHT22;443;51.448;7.028;2023-04-09T05:10:30;11.60;75.00
913;DHT22;443;51.448;7.028;2023-04-09T05:12:57;11.60;75.10
913;DHT22;443;51.448;7.028;2023-04-09T05:15:23;11.60;75.00
913;DHT22;443;51.448;7.028;2023-04-09T05:17:50;11.60;74.90
913;DHT22;443;51.448;7.028;2023-04-09T05:20:17;11.50;74.30
913;DHT22;443;51.448;7.028;2023-04-09T05:22:44;11.60;74.60
913;DHT22;443;51.448;7.028;2023-04-09T05:25:12;11.60;75.00
913;DHT22;443;51.448;7.028;2023-04-09T05:27:40;11.60;75.00
913;DHT22;443;51.448;7.028;2023-04-09T05:30:08;11.60;74.90
913;DHT22;443;51.448;7.028;2023-04-09T05:32:34;11.70;75.30
913;DHT22;443;51.448;7.028;2023-04-09T05:35:01;11.70;75.10
913;DHT22;443;51.448;7.028;2023-04-09T05:37:28;11.70;75.50
913;DHT22;443;51.448;7.028;2023-04-09T05:39:55;11.70;75.10
913;DHT22;443;51.448;7.028;2023-04-09T05:42:23;11.70;75.30
913;DHT22;443;51.448;7.028;2023-04-09T05:44:50;11.80;75.80
913;DHT22;443;51.448;7.028;2023-04-09T05:47:17;11.70;74.90
913;DHT22;443;51.448;7.028;2023-04-09T05:49:44;11.70;75.00
913;DHT22;443;51.448;7.028;2023-04-09T05:52:11;11.80;75.60
913;DHT22;443;51.448;7.028;2023-04-09T05:54:37;11.80;75.10
913;DHT22;443;51.448;7.028;2023-04-09T05:57:04;11.70;74.80
913;DHT22;443;51.448;7.028;2023-04-09T05:59:32;11.70;75.20
913;DHT22;443;51.448;7.028;2023-04-09T06:01:59;11.60;74.30
913;DHT22;443;51.448;7.028;2023-04-09T06:04:26;11.60;74.50
913;DHT22;443;51.448;7.028;2023-04-09T06:06:52;11.60;74.10
913;DHT22;443;51.448;7.028;2023-04-09T06:09:20;11.60;74.20
913;DHT22;443;51.448;7.028;2023-04-09T06:11:46;11.60;74.60
913;DHT22;443;51.448;7.028;2023-04-09T06:14:13;11.70;74.20
913;DHT22;443;51.448;7.028;2023-04-09T06:16:43;11.80;75.30
913;DHT22;443;51.448;7.028;2023-04-09T06:19:10;11.80;75.70
913;DHT22;443;51.448;7.028;2023-04-09T06:21:37;11.80;75.40
913;DHT22;443;51.448;7.028;2023-04-09T06:24:05;11.80;74.60
913;DHT22;443;51.448;7.028;2023-04-09T06:26:32;11.80;75.20
913;DHT22;443;51.448;7.028;2023-04-09T06:28:59;11.80;75.10
913;DHT22;443;51.448;7.028;2023-04-09T06:31:25;11.80;74.70
913;DHT22;443;51.448;7.028;2023-04-09T06:33:53;12.20;78.60
913;DHT22;443;51.448;7.028;2023-04-09T06:36:20;12.70;77.40
913;DHT22;443;51.448;7.028;2023-04-09T06:38:47;13.00;76.00
913;DHT22;443;51.448;7.028;2023-04-09T06:41:14;12.90;74.20
913;DHT22;443;51.448;7.028;2023-04-09T06:43:41;12.40;71.30
913;DHT22;443;51.448;7.028;2023-04-09T06:46:07;12.20;73.00
913;DHT22;443;51.448;7.028;2023-04-09T06:48:34;12.20;73.60
913;DHT22;443;51.448;7.028;2023-04-09T06:51:03;12.10;73.60
913;DHT22;443;51.448;7.028;2023-04-09T06:53:30;12.10;74.00
913;DHT22;443;51.448;7.028;2023-04-09T06:55:57;12.00;74.00
913;DHT22;443;51.448;7.028;2023-04-09T06:58:24;12.10;73.60
913;DHT22;443;51.448;7.028;2023-04-09T07:00:50;12.10;73.90
913;DHT22;443;51.448;7.028;2023-04-09T07:03:17;12.10;73.60
913;DHT22;443;51.448;7.028;2023-04-09T07:05:44;12.10;74.20
913;DHT22;443;51.448;7.028;2023-04-09T07:08:13;12.10;73.10
913;DHT22;443;51.448;7.028;2023-04-09T07:10:39;12.10;74.40
913;DHT22;443;51.448;7.028;2023-04-09T07:13:06;12.10;73.80
913;DHT22;443;51.448;7.028;2023-04-09T07:15:33;12.20;74.30
913;DHT22;443;51.448;7.028;2023-04-09T07:18:00;12.30;72.80
913;DHT22;443;51.448;7.028;2023-04-09T07:20:26;12.30;72.60
913;DHT22;443;51.448;7.028;2023-04-09T07:22:53;12.30;71.80
913;DHT22;443;51.448;7.028;2023-04-09T07:25:21;12.40;72.40
913;DHT22;443;51.448;7.028;2023-04-09T07:27:48;12.50;72.70
913;DHT22;443;51.448;7.028;2023-04-09T07:30:15;12.50;71.60
913;DHT22;443;51.448;7.028;2023-04-09T07:32:42;12.80;74.30
913;DHT22;443;51.448;7.028;2023-04-09T07:35:09;12.90;72.90
913;DHT22;443;51.448;7.028;2023-04-09T07:37:36;13.00;70.70
913;DHT22;443;51.448;7.028;2023-04-09T07:40:03;13.00;71.90
913;DHT22;443;51.448;7.028;2023-04-09T07:42:31;12.80;71.20
913;DHT22;443;51.448;7.028;2023-04-09T07:44:58;12.80;70.90
913;DHT22;443;51.448;7.028;2023-04-09T07:47:25;12.80;71.40
913;DHT22;443;51.448;7.028;2023-04-09T07:49:53;12.80;70.80
913;DHT22;443;51.448;7.028;2023-04-09T07:52:19;12.80;70.60
913;DHT22;443;51.448;7.028;2023-04-09T07:54:46;12.90;70.70
913;DHT22;443;51.448;7.028;2023-04-09T07:57:13;12.80;70.80
913;DHT22;443;51.448;7.028;2023-04-09T07:59:41;13.00;71.30
913;DHT22;443;51.448;7.028;2023-04-09T08:02:08;13.00;70.30
913;DHT22;443;51.448;7.028;2023-04-09T08:04:35;13.00;70.40
913;DHT22;443;51.448;7.028;2023-04-09T08:07:02;13.10;69.90
913;DHT22;443;51.448;7.028;2023-04-09T08:09:28;13.10;69.90
913;DHT22;443;51.448;7.028;2023-04-09T08:11:55;13.20;71.60
913;DHT22;443;51.448;7.028;2023-04-09T08:14:22;13.40;71.60
913;DHT22;443;51.448;7.028;2023-04-09T08:16:50;13.50;71.00
913;DHT22;443;51.448;7.028;2023-04-09T08:19:17;13.70;73.30
913;DHT22;443;51.448;7.028;2023-04-09T08:21:44;13.60;69.60
913;DHT22;443;51.448;7.028;2023-04-09T08:24:13;13.60;72.20
913;DHT22;443;51.448;7.028;2023-04-09T08:26:41;13.80;71.90
913;DHT22;443;51.448;7.028;2023-04-09T08:29:09;13.80;70.20
913;DHT22;443;51.448;7.028;2023-04-09T08:31:36;13.90;72.20
913;DHT22;443;51.448;7.028;2023-04-09T08:34:04;13.90;71.90
913;DHT22;443;51.448;7.028;2023-04-09T08:36:32;13.90;72.40
913;DHT22;443;51.448;7.028;2023-04-09T08:38:59;13.80;68.10
913;DHT22;443;51.448;7.028;2023-04-09T08:41:27;13.80;68.60
913;DHT22;443;51.448;7.028;2023-04-09T08:43:55;13.80;69.60
913;DHT22;443;51.448;7.028;2023-04-09T08:46:22;13.80;68.30
913;DHT22;443;51.448;7.028;2023-04-09T08:48:51;14.00;71.80
913;DHT22;443;51.448;7.028;2023-04-09T08:51:20;14.10;71.50
913;DHT22;443;51.448;7.028;2023-04-09T08:53:50;14.10;70.20
913;DHT22;443;51.448;7.028;2023-04-09T08:56:18;14.20;71.60
913;DHT22;443;51.448;7.028;2023-04-09T08:58:46;14.20;71.00
913;DHT22;443;51.448;7.028;2023-04-09T09:01:25;14.20;71.50
913;DHT22;443;51.448;7.028;2023-04-09T09:03:53;14.30;71.30
913;DHT22;443;51.448;7.028;2023-04-09T09:06:23;14.30;71.10
913;DHT22;443;51.448;7.028;2023-04-09T09:09:06;14.30;68.80
913;DHT22;443;51.448;7.028;2023-04-09T09:11:34;14.30;65.30
913;DHT22;443;51.448;7.028;2023-04-09T09:14:03;14.30;68.60
913;DHT22;443;51.448;7.028;2023-04-09T09:16:30;14.30;70.10
913;DHT22;443;51.448;7.028;2023-04-09T09:18:59;14.30;68.30
913;DHT22;443;51.448;7.028;2023-04-09T09:21:28;14.30;66.70
913;DHT22;443;51.448;7.028;2023-04-09T09:23:56;14.30;66.30
913;DHT22;443;51.448;7.028;2023-04-09T09:26:24;14.30;64.90
913;DHT22;443;51.448;7.028;2023-04-09T09:28:52;14.30;63.10
913;DHT22;443;51.448;7.028;2023-04-09T09:31:20;14.30;64.80
913;DHT22;443;51.448;7.028;2023-04-09T09:33:48;14.30;64.00
913;DHT22;443;51.448;7.028;2023-04-09T09:36:30;14.40;66.10
913;DHT22;443;51.448;7.028;2023-04-09T09:38:59;14.30;62.70
913;DHT22;443;51.448;7.028;2023-04-09T09:41:30;14.30;63.00
913;DHT22;443;51.448;7.028;2023-04-09T09:43:57;14.30;62.50
913;DHT22;443;51.448;7.028;2023-04-09T09:46:24;14.40;70.30
913;DHT22;443;51.448;7.028;2023-04-09T09:48:53;14.40;68.20
913;DHT22;443;51.448;7.028;2023-04-09T09:51:23;14.40;70.00
913;DHT22;443;51.448;7.028;2023-04-09T09:53:54;14.40;66.40
913;DHT22;443;51.448;7.028;2023-04-09T09:56:24;14.40;67.30
913;DHT22;443;51.448;7.028;2023-04-09T09:59:01;14.50;69.00
913;DHT22;443;51.448;7.028;2023-04-09T10:01:32;14.50;67.30
913;DHT22;443;51.448;7.028;2023-04-09T10:03:59;14.50;70.30
913;DHT22;443;51.448;7.028;2023-04-09T10:06:26;14.50;67.90
913;DHT22;443;51.448;7.028;2023-04-09T10:08:56;14.50;70.60
913;DHT22;443;51.448;7.028;2023-04-09T10:11:23;14.50;70.30
913;DHT22;443;51.448;7.028;2023-04-09T10:13:54;14.50;70.50
913;DHT22;443;51.448;7.028;2023-04-09T10:16:22;14.60;67.00
913;DHT22;443;51.448;7.028;2023-04-09T10:18:49;14.60;68.80
913;DHT22;443;51.448;7.028;2023-04-09T10:21:25;14.60;68.90
913;DHT22;443;51.448;7.028;2023-04-09T10:23:55;14.60;69.20
913;DHT22;443;51.448;7.028;2023-04-09T10:26:24;14.60;66.20
913;DHT22;443;51.448;7.028;2023-04-09T10:29:03;14.60;69.50
913;DHT22;443;51.448;7.028;2023-04-09T10:31:44;14.60;63.10
913;DHT22;443;51.448;7.028;2023-04-09T10:34:14;14.70;67.10
913;DHT22;443;51.448;7.028;2023-04-09T10:36:42;14.60;69.30
913;DHT22;443;51.448;7.028;2023-04-09T10:39:12;14.60;63.00
913;DHT22;443;51.448;7.028;2023-04-09T10:41:42;14.70;61.60
913;DHT22;443;51.448;7.028;2023-04-09T10:44:19;14.70;68.90
913;DHT22;443;51.448;7.028;2023-04-09T10:46:47;14.60;64.20
913;DHT22;443;51.448;7.028;2023-04-09T10:49:15;14.70;69.60
913;DHT22;443;51.448;7.028;2023-04-09T10:51:49;14.70;69.00
913;DHT22;443;51.448;7.028;2023-04-09T10:54:40;14.70;68.20
913;DHT22;443;51.448;7.028;2023-04-09T10:57:20;14.70;64.70
913;DHT22;443;51.448;7.028;2023-04-09T10:59:48;14.70;65.10
913;DHT22;443;51.448;7.028;2023-04-09T11:05:31;14.70;69.10
913;DHT22;443;51.448;7.028;2023-04-09T11:08:03;14.70;66.00
913;DHT22;443;51.448;7.028;2023-04-09T11:10:32;14.70;61.60
913;DHT22;443;51.448;7.028;2023-04-09T11:12:59;14.80;68.50
913;DHT22;443;51.448;7.028;2023-04-09T11:15:26;14.70;69.30
913;DHT22;443;51.448;7.028;2023-04-09T11:17:53;14.70;66.20
913;DHT22;443;51.448;7.028;2023-04-09T11:20:21;14.80;68.10
913;DHT22;443;51.448;7.028;2023-04-09T11:22:49;14.80;68.30
913;DHT22;443;51.448;7.028;2023-04-09T11:25:20;14.80;69.10
913;DHT22;443;51.448;7.028;2023-04-09T11:27:50;14.80;69.70
913;DHT22;443;51.448;7.028;2023-04-09T11:30:17;14.80;66.30
913;DHT22;443;51.448;7.028;2023-04-09T11:32:44;14.80;69.80
913;DHT22;443;51.448;7.028;2023-04-09T11:35:12;14.70;69.90
913;DHT22;443;51.448;7.028;2023-04-09T11:37:40;14.70;68.90
913;DHT22;443;51.448;7.028;2023-04-09T11:40:14;14.80;69.50
913;DHT22;443;51.448;7.028;2023-04-09T11:42:42;14.80;69.20
913;DHT22;443;51.448;7.028;2023-04-09T11:45:11;14.80;69.40
913;DHT22;443;51.448;7.028;2023-04-09T11:47:39;14.80;68.30
913;DHT22;443;51.448;7.028;2023-04-09T11:50:07;14.80;69.90
913;DHT22;443;51.448;7.028;2023-04-09T11:52:34;14.80;69.80
913;DHT22;443;51.448;7.028;2023-04-09T11:55:01;14.80;70.00
913;DHT22;443;51.448;7.028;2023-04-09T11:57:40;14.80;69.00
913;DHT22;443;51.448;7.028;2023-04-09T12:00:11;14.80;68.90
913;DHT22;443;51.448;7.028;2023-04-09T12:02:40;14.90;68.20
913;DHT22;443;51.448;7.028;2023-04-09T12:05:09;14.90;69.40
913;DHT22;443;51.448;7.028;2023-04-09T12:07:36;14.80;69.60
913;DHT22;443;51.448;7.028;2023-04-09T12:10:04;14.90;66.90
913;DHT22;443;51.448;7.028;2023-04-09T12:12:41;14.90;67.80
913;DHT22;443;51.448;7.028;2023-04-09T12:15:20;15.00;64.10
913;DHT22;443;51.448;7.028;2023-04-09T12:17:48;15.00;66.80
913;DHT22;443;51.448;7.028;2023-04-09T12:20:32;14.90;68.60
913;DHT22;443;51.448;7.028;2023-04-09T12:23:00;14.80;68.60
913;DHT22;443;51.448;7.028;2023-04-09T12:25:28;14.90;67.00
913;DHT22;443;51.448;7.028;2023-04-09T12:27:55;14.90;68.50
913;DHT22;443;51.448;7.028;2023-04-09T12:30:24;14.90;68.60
913;DHT22;443;51.448;7.028;2023-04-09T12:32:51;14.90;69.30
913;DHT22;443;51.448;7.028;2023-04-09T12:35:18;14.90;68.60
913;DHT22;443;51.448;7.028;2023-04-09T12:37:45;15.00;64.80
913;DHT22;443;51.448;7.028;2023-04-09T12:40:12;15.10;67.20
913;DHT22;443;51.448;7.028;2023-04-09T12:42:39;15.00;68.20
913;DHT22;443;51.448;7.028;2023-04-09T12:45:07;15.10;66.90
913;DHT22;443;51.448;7.028;2023-04-09T12:47:36;15.10;68.00
913;DHT22;443;51.448;7.028;2023-04-09T12:50:05;15.00;68.80
913;DHT22;443;51.448;7.028;2023-04-09T12:52:32;15.00;69.10
913;DHT22;443;51.448;7.028;2023-04-09T12:55:00;15.00;69.00
913;DHT22;443;51.448;7.028;2023-04-09T12:57:27;15.00;68.90
913;DHT22;443;51.448;7.028;2023-04-09T12:59:54;15.00;67.30
913;DHT22;443;51.448;7.028;2023-04-09T13:02:21;15.00;66.70
913;DHT22;443;51.448;7.028;2023-04-09T13:04:49;15.10;68.10
913;DHT22;443;51.448;7.028;2023-04-09T13:07:17;15.20;65.10
913;DHT22;443;51.448;7.028;2023-04-09T13:09:45;15.10;68.60
913;DHT22;443;51.448;7.028;2023-04-09T13:12:12;15.10;68.70
913;DHT22;443;51.448;7.028;2023-04-09T13:14:40;15.10;68.20
913;DHT22;443;51.448;7.028;2023-04-09T13:17:07;15.00;69.00
913;DHT22;443;51.448;7.028;2023-04-09T13:19:33;15.10;67.70
913;DHT22;443;51.448;7.028;2023-04-09T13:22:02;15.00;68.90
913;DHT22;443;51.448;7.028;2023-04-09T13:24:32;15.00;66.80
913;DHT22;443;51.448;7.028;2023-04-09T13:27:00;15.10;68.50
913;DHT22;443;51.448;7.028;2023-04-09T13:29:26;15.10;68.60
913;DHT22;443;51.448;7.028;2023-04-09T13:31:54;15.10;68.60
913;DHT22;443;51.448;7.028;2023-04-09T13:34:21;15.10;68.70
913;DHT22;443;51.448;7.028;2023-04-09T13:36:48;15.10;68.70
913;DHT22;443;51.448;7.028;2023-04-09T13:39:16;15.10;68.70
913;DHT22;443;51.448;7.028;2023-04-09T13:41:43;15.10;68.60
913;DHT22;443;51.448;7.028;2023-04-09T13:44:10;15.20;68.50
913;DHT22;443;51.448;7.028;2023-04-09T13:46:37;15.40;66.60
913;DHT22;443;51.448;7.028;2023-04-09T13:49:04;15.40;67.70
913;DHT22;443;51.448;7.028;2023-04-09T13:51:31;15.30;68.20
913;DHT22;443;51.448;7.028;2023-04-09T13:53:59;15.30;68.10
913;DHT22;443;51.448;7.028;2023-04-09T13:56:27;15.30;67.80
913;DHT22;443;51.448;7.028;2023-04-09T13:58:53;15.50;66.40
913;DHT22;443;51.448;7.028;2023-04-09T14:01:20;15.70;66.30
913;DHT22;443;51.448;7.028;2023-04-09T14:03:47;15.70;65.70
913;DHT22;443;51.448;7.028;2023-04-09T14:06:14;15.80;66.70
913;DHT22;443;51.448;7.028;2023-04-09T14:08:40;15.80;66.50
913;DHT22;443;51.448;7.028;2023-04-09T14:11:07;15.70;66.70
913;DHT22;443;51.448;7.028;2023-04-09T14:13:39;15.70;66.70
913;DHT22;443;51.448;7.028;2023-04-09T14:16:07;15.80;66.10
913;DHT22;443;51.448;7.028;2023-04-09T14:18:34;16.00;65.70
913;DHT22;443;51.448;7.028;2023-04-09T14:21:00;16.10;65.20
913;DHT22;443;51.448;7.028;2023-04-09T14:23:27;16.10;65.70
913;DHT22;443;51.448;7.028;2023-04-09T14:25:54;16.00;65.80
913;DHT22;443;51.448;7.028;2023-04-09T14:28:21;16.00;65.80
913;DHT22;443;51.448;7.028;2023-04-09T14:30:49;16.10;65.70
913;DHT22;443;51.448;7.028;2023-04-09T14:33:16;16.10;65.70
913;DHT22;443;51.448;7.028;2023-04-09T14:35:46;16.10;65.60
913;DHT22;443;51.448;7.028;2023-04-09T14:38:12;16.10;65.60
913;DHT22;443;51.448;7.028;2023-04-09T14:40:39;16.10;65.50
913;DHT22;443;51.448;7.028;2023-04-09T14:43:06;16.10;65.50
913;DHT22;443;51.448;7.028;2023-04-09T14:45:33;16.00;65.50
913;DHT22;443;51.448;7.028;2023-04-09T14:48:01;16.00;65.70
913;DHT22;443;51.448;7.028;2023-04-09T14:50:29;16.20;65.40
913;DHT22;443;51.448;7.028;2023-04-09T14:52:55;16.30;64.80
913;DHT22;443;51.448;7.028;2023-04-09T14:55:22;16.50;64.30
913;DHT22;443;51.448;7.028;2023-04-09T14:57:50;16.70;63.80
913;DHT22;443;51.448;7.028;2023-04-09T15:00:17;16.80;63.20
913;DHT22;443;51.448;7.028;2023-04-09T15:02:44;16.70;63.20
913;DHT22;443;51.448;7.028;2023-04-09T15:05:13;16.80;63.40
913;DHT22;443;51.448;7.028;2023-04-09T15:07:40;16.60;63.60
913;DHT22;443;51.448;7.028;2023-04-09T15:10:08;16.40;64.30
913;DHT22;443;51.448;7.028;2023-04-09T15:12:35;16.20;64.70
913;DHT22;443;51.448;7.028;2023-04-09T15:15:04;16.20;65.20
913;DHT22;443;51.448;7.028;2023-04-09T15:17:31;16.10;65.50
913;DHT22;443;51.448;7.028;2023-04-09T15:19:58;16.10;65.60
913;DHT22;443;51.448;7.028;2023-04-09T15:22:26;16.00;65.70
913;DHT22;443;51.448;7.028;2023-04-09T15:24:53;16.00;66.70
913;DHT22;443;51.448;7.028;2023-04-09T15:27:20;16.00;66.00
913;DHT22;443;51.448;7.028;2023-04-09T15:29:46;16.00;66.00
913;DHT22;443;51.448;7.028;2023-04-09T15:32:13;15.90;66.00
913;DHT22;443;51.448;7.028;2023-04-09T15:34:40;15.90;66.10
913;DHT22;443;51.448;7.028;2023-04-09T15:37:07;15.90;66.40
913;DHT22;443;51.448;7.028;2023-04-09T15:39:35;15.80;66.30
913;DHT22;443;51.448;7.028;2023-04-09T15:42:02;15.80;66.60
913;DHT22;443;51.448;7.028;2023-04-09T15:44:29;15.80;66.50
913;DHT22;443;51.448;7.028;2023-04-09T15:46:55;15.80;66.60
913;DHT22;443;51.448;7.028;2023-04-09T15:49:22;15.80;66.70
913;DHT22;443;51.448;7.028;2023-04-09T15:51:49;15.70;66.70
913;DHT22;443;51.448;7.028;2023-04-09T15:54:15;15.70;66.80
913;DHT22;443;51.448;7.028;2023-04-09T15:56:44;15.60;67.00
913;DHT22;443;51.448;7.028;2023-04-09T15:59:10;15.70;67.10
913;DHT22;443;51.448;7.028;2023-04-09T16:01:37;15.70;66.70
913;DHT22;443;51.448;7.028;2023-04-09T16:04:04;15.60;66.60
913;DHT22;443;51.448;7.028;2023-04-09T16:06:31;15.60;66.50
913;DHT22;443;51.448;7.028;2023-04-09T16:08:57;15.60;66.40
913;DHT22;443;51.448;7.028;2023-04-09T16:11:24;15.60;66.40
913;DHT22;443;51.448;7.028;2023-04-09T16:13:52;15.80;66.10
913;DHT22;443;51.448;7.028;2023-04-09T16:16:20;16.00;65.40
913;DHT22;443;51.448;7.028;2023-04-09T16:18:47;16.20;64.50
913;DHT22;443;51.448;7.028;2023-04-09T16:21:14;16.30;64.30
913;DHT22;443;51.448;7.028;2023-04-09T16:23:41;16.20;64.20
913;DHT22;443;51.448;7.028;2023-04-09T16:26:08;16.20;64.40
913;DHT22;443;51.448;7.028;2023-04-09T16:28:35;16.20;64.50
913;DHT22;443;51.448;7.028;2023-04-09T16:31:03;16.40;64.30
913;DHT22;443;51.448;7.028;2023-04-09T16:33:31;16.50;63.60
913;DHT22;443;51.448;7.028;2023-04-09T16:35:57;16.50;63.50
913;DHT22;443;51.448;7.028;2023-04-09T16:38:24;16.50;63.30
913;DHT22;443;51.448;7.028;2023-04-09T16:40:53;16.40;63.50
913;DHT22;443;51.448;7.028;2023-04-09T16:43:20;16.30;63.90